Time;durP1;ratioP1;P1;durP2;ratioP2;P2;SDS_P1;SDS_P2;PMS_P1;PMS_P2;Temp;Humidity;BMP_temperature;BMP_pressure;BME280_temperature;BME280_humidity;BME280_pressure;Samples;Min_cycle;Max_cycle;Signal;HPM_P1;HPM_P2
2021/06/17 00:00:49;;;;;;;5.57;3.10;;;;;;;19.68;nan;96330.09;3529834;40;20485;-73
2021/06/17 00:03:17;;;;;;;4.17;2.60;;;;;;;19.73;nan;96325.16;3530195;40;20798;-73
2021/06/17 00:05:46;;;;;;;7.97;3.20;;;;;;;19.70;nan;96338.75;3531519;40;20491;-73
2021/06/17 00:08:14;;;;;;;9.80;3.10;;;;;;;19.53;nan;96333.44;3533672;40;20457;-73
2021/06/17 00:10:45;;;;;;;3.33;2.60;;;;;;;19.56;nan;96333.13;3529332;40;20469;-73
2021/06/17 00:13:35;;;;;;;3.10;2.60;;;;;;;19.53;nan;96330.78;3533682;40;20907;-73
2021/06/17 00:16:05;;;;;;;4.40;2.87;;;;;;;19.53;nan;96330.78;3524245;40;20464;-73
2021/06/17 00:18:33;;;;;;;5.77;3.47;;;;;;;19.59;nan;96325.81;3532797;40;20844;-73
2021/06/17 00:21:03;;;;;;;5.40;3.13;;;;;;;19.50;nan;96332.94;3527794;40;20574;-72
2021/06/17 00:23:31;;;;;;;7.40;3.10;;;;;;;19.54;nan;96328.94;3530333;40;20577;-73
2021/06/17 00:26:01;;;;;;;5.40;2.97;;;;;;;19.53;nan;96327.31;3531238;40;20924;-73
2021/06/17 00:28:29;;;;;;;7.50;3.50;;;;;;;19.44;nan;96323.81;3522420;40;20983;-73
2021/06/17 00:30:57;;;;;;;4.40;2.90;;;;;;;19.55;nan;96335.94;3530381;40;20668;-73
2021/06/17 00:33:25;;;;;;;6.30;3.10;;;;;;;19.26;nan;96325.84;3529587;40;20570;-73
2021/06/17 00:35:53;;;;;;;15.90;3.03;;;;;;;19.27;nan;96328.31;3529383;40;20789;-73
2021/06/17 00:38:21;;;;;;;4.60;2.90;;;;;;;19.32;nan;96327.81;3528006;40;20489;-73
2021/06/17 00:40:51;;;;;;;3.23;2.80;;;;;;;19.30;nan;96329.81;3530314;40;20865;-73
2021/06/17 00:43:21;;;;;;;13.40;3.40;;;;;;;19.01;nan;96323.16;3521356;40;20841;-73
2021/06/17 00:45:51;;;;;;;3.63;2.47;;;;;;;19.06;nan;96318.19;3530791;40;20466;-73
2021/06/17 00:48:19;;;;;;;6.53;3.80;;;;;;;19.06;nan;96310.22;3529563;40;20476;-73
2021/06/17 00:50:51;;;;;;;7.40;3.57;;;;;;;19.01;nan;96295.81;3528313;40;20491;-73
2021/06/17 00:53:22;;;;;;;4.10;3.13;;;;;;;19.11;nan;96307.94;3527793;40;20900;-73
2021/06/17 00:55:50;;;;;;;11.33;3.80;;;;;;;19.08;nan;96302.94;3529550;40;21054;-72
2021/06/17 00:58:19;;;;;;;3.60;2.63;;;;;;;19.00;nan;96294.16;3523118;40;20478;-73
2021/06/17 01:00:47;;;;;;;6.53;3.00;;;;;;;18.97;nan;96284.69;3529685;40;20457;-73
2021/06/17 01:03:15;;;;;;;10.90;2.80;;;;;;;19.32;nan;96296.78;3531275;40;21099;-74
2021/06/17 01:05:44;;;;;;;3.00;2.57;;;;;;;19.44;nan;96294.59;3532797;40;20464;-73
2021/06/17 01:08:19;;;;;;;5.10;2.67;;;;;;;19.43;nan;96292.97;3533203;40;20563;-73
2021/06/17 01:10:55;;;;;;;5.40;2.70;;;;;;;19.43;nan;96282.34;3531156;40;20469;-72
2021/06/17 01:13:32;;;;;;;6.80;2.93;;;;;;;19.09;nan;96286.03;3530582;40;20706;-72
2021/06/17 01:16:09;;;;;;;3.80;2.70;;;;;;;19.11;nan;96289.34;3532816;40;21188;-73
2021/06/17 01:18:48;;;;;;;5.40;2.57;;;;;;;19.04;nan;96285.69;3527606;40;20892;-73
2021/06/17 01:21:53;;;;;;;5.10;2.80;;;;;;;18.64;nan;96279.34;3524580;40;20461;-73
2021/06/17 01:24:34;;;;;;;6.27;4.10;;;;;;;18.30;nan;96285.53;3527982;40;20706;-72
2021/06/17 01:27:31;;;;;;;8.37;4.10;;;;;;;17.72;nan;96286.25;3529242;40;20462;-73
2021/06/17 01:30:07;;;;;;;7.60;3.60;;;;;;;17.57;nan;96283.38;3528269;40;20687;-73
2021/06/17 01:32:37;;;;;;;6.43;3.57;;;;;;;17.93;nan;96278.78;3529785;40;20664;-73
2021/06/17 01:35:08;;;;;;;6.10;3.30;;;;;;;17.88;nan;96281.09;3527667;40;21214;-73
2021/06/17 01:37:38;;;;;;;4.87;3.57;;;;;;;17.94;nan;96280.44;3529679;40;20458;-73
2021/06/17 01:40:08;;;;;;;4.97;3.30;;;;;;;18.00;nan;96286.13;3530994;40;20785;-73
2021/06/17 01:42:38;;;;;;;7.13;3.83;;;;;;;17.95;nan;96274.19;3532907;40;20446;-73
2021/06/17 01:45:10;;;;;;;10.73;3.90;;;;;;;17.90;nan;96276.47;3531244;40;20500;-73
2021/06/17 01:47:39;;;;;;;5.93;3.70;;;;;;;17.57;nan;96276.25;3529579;40;20851;-73
2021/06/17 01:50:12;;;;;;;4.23;3.40;;;;;;;17.68;nan;96276.97;3530768;40;20836;-72
2021/06/17 01:52:41;;;;;;;4.10;3.10;;;;;;;17.75;nan;96278.00;3531669;40;20463;-73
2021/06/17 01:55:11;;;;;;;5.80;3.10;;;;;;;17.83;nan;96279.88;3532658;40;20481;-73
2021/06/17 01:57:40;;;;;;;8.13;3.60;;;;;;;17.75;nan;96273.53;3528081;40;20479;-73
2021/06/17 02:00:15;;;;;;;8.27;3.67;;;;;;;17.50;nan;96274.41;3527960;40;20472;-73
2021/06/17 02:02:47;;;;;;;5.33;3.10;;;;;;;17.45;nan;96271.41;3530393;40;20955;-73
2021/06/17 02:05:15;;;;;;;6.50;3.20;;;;;;;17.22;nan;96279.84;3529588;40;20584;-71
2021/06/17 02:07:45;;;;;;;8.20;3.50;;;;;;;17.42;nan;96274.34;3533859;40;20734;-73
2021/06/17 02:10:17;;;;;;;7.70;3.23;;;;;;;17.47;nan;96267.59;3530754;40;20465;-73
2021/06/17 02:12:45;;;;;;;4.60;3.07;;;;;;;17.52;nan;96267.97;3530762;40;20564;-74
2021/06/17 02:15:15;;;;;;;4.37;3.47;;;;;;;17.50;nan;96275.22;3531049;40;20807;-73
2021/06/17 02:17:47;;;;;;;9.40;3.63;;;;;;;17.29;nan;96288.84;3532530;40;20908;-73
2021/06/17 02:20:18;;;;;;;6.53;3.67;;;;;;;17.23;nan;96288.59;3529489;40;20938;-73
2021/06/17 02:22:46;;;;;;;5.60;3.10;;;;;;;16.97;nan;96294.69;3534194;40;21101;-72
2021/06/17 02:25:16;;;;;;;6.17;3.53;;;;;;;16.81;nan;96290.06;3533555;40;20719;-73
2021/06/17 02:27:49;;;;;;;4.57;3.70;;;;;;;16.82;nan;96290.91;3534937;40;20691;-72
2021/06/17 02:30:19;;;;;;;9.93;3.87;;;;;;;17.02;nan;96281.84;3532058;40;20478;-73
2021/06/17 02:32:50;;;;;;;6.53;3.83;;;;;;;17.08;nan;96296.28;3530963;40;20452;-73
2021/06/17 02:35:21;;;;;;;7.00;3.97;;;;;;;17.12;nan;96297.63;3529517;40;20477;-72
2021/06/17 02:37:53;;;;;;;5.80;3.90;;;;;;;17.13;nan;96289.53;3527103;40;20700;-72
2021/06/17 02:40:22;;;;;;;6.23;3.30;;;;;;;17.03;nan;96296.72;3520125;40;20488;-72
2021/06/17 02:43:04;;;;;;;5.43;3.40;;;;;;;17.02;nan;96304.81;3530551;40;20752;-72
2021/06/17 02:45:34;;;;;;;6.00;3.80;;;;;;;16.98;nan;96304.28;3531221;40;20659;-73
2021/06/17 02:48:02;;;;;;;7.63;4.23;;;;;;;17.04;nan;96302.88;3531049;40;20483;-72
2021/06/17 02:50:30;;;;;;;4.63;4.10;;;;;;;17.02;nan;96305.66;3530634;40;20471;-72
2021/06/17 02:52:58;;;;;;;11.90;3.97;;;;;;;16.97;nan;96294.69;3527520;40;20773;-73
2021/06/17 02:55:26;;;;;;;7.40;4.23;;;;;;;16.95;nan;96299.28;3530770;40;20473;-73
2021/06/17 02:58:04;;;;;;;6.50;4.40;;;;;;;16.90;nan;96299.75;3534454;40;20944;-73
2021/06/17 03:00:38;;;;;;;7.83;3.80;;;;;;;16.96;nan;96298.34;3521192;40;20987;-73
2021/06/17 03:03:14;;;;;;;8.97;4.03;;;;;;;16.95;nan;96300.13;3528289;40;21133;-73
2021/06/17 03:05:46;;;;;;;4.80;3.80;;;;;;;17.00;nan;96294.41;3530266;40;20448;-72
2021/06/17 03:08:19;;;;;;;4.97;3.00;;;;;;;17.04;nan;96293.09;3530505;40;20600;-72
2021/06/17 03:10:48;;;;;;;8.73;4.10;;;;;;;17.03;nan;96299.38;3528678;40;20551;-73
2021/06/17 03:13:19;;;;;;;7.80;3.73;;;;;;;16.91;nan;96301.41;3529939;40;20751;-73
2021/06/17 03:15:51;;;;;;;5.60;4.17;;;;;;;16.73;nan;96295.28;3529063;40;20539;-72
2021/06/17 03:18:21;;;;;;;8.63;4.20;;;;;;;16.83;nan;96305.81;3522037;40;20859;-72
2021/06/17 03:20:50;;;;;;;8.33;4.00;;;;;;;16.82;nan;96301.50;3531667;40;20864;-74
2021/06/17 03:23:21;;;;;;;7.83;4.27;;;;;;;16.89;nan;96307.84;3521563;40;20464;-72
2021/06/17 03:25:52;;;;;;;7.00;3.83;;;;;;;16.92;nan;96308.38;3528101;40;20505;-73
2021/06/17 03:28:21;;;;;;;5.13;4.10;;;;;;;16.90;nan;96315.63;3529746;40;20943;-74
2021/06/17 03:30:51;;;;;;;7.63;3.77;;;;;;;16.91;nan;96313.81;3529118;40;21204;-72
2021/06/17 03:33:25;;;;;;;5.40;3.90;;;;;;;16.95;nan;96320.47;3530513;40;20670;-72
2021/06/17 03:35:54;;;;;;;6.97;3.00;;;;;;;17.03;nan;96317.88;3529757;40;20492;-72
2021/06/17 03:38:24;;;;;;;6.93;3.23;;;;;;;16.87;nan;96300.06;3528962;40;20550;-73
2021/06/17 03:40:55;;;;;;;4.70;3.40;;;;;;;16.86;nan;96310.81;3533866;40;20998;-72
2021/06/17 03:43:24;;;;;;;5.27;3.63;;;;;;;16.85;nan;96317.06;3528333;40;20520;-72
2021/06/17 03:45:56;;;;;;;10.93;3.43;;;;;;;16.83;nan;96319.84;3532444;40;20921;-73
2021/06/17 03:48:24;;;;;;;9.10;3.97;;;;;;;16.84;nan;96320.69;3529566;40;20988;-73
2021/06/17 03:50:53;;;;;;;7.60;3.70;;;;;;;16.71;nan;96323.69;3527821;40;20543;-73
2021/06/17 03:53:22;;;;;;;5.10;3.30;;;;;;;16.97;nan;96326.41;3530607;40;20538;-72
2021/06/17 03:55:54;;;;;;;5.27;3.40;;;;;;;17.11;nan;96320.63;3529951;40;20535;-73
2021/06/17 03:58:24;;;;;;;6.60;3.50;;;;;;;17.14;nan;96325.59;3529105;40;20935;-73
2021/06/17 04:00:56;;;;;;;5.20;3.33;;;;;;;17.14;nan;96317.66;3530657;40;20501;-73
2021/06/17 04:03:26;;;;;;;6.23;3.30;;;;;;;17.29;nan;96325.03;3528824;40;20465;-73
2021/06/17 04:05:57;;;;;;;6.50;3.07;;;;;;;17.38;nan;96324.09;3518945;40;20907;-72
2021/06/17 04:08:30;;;;;;;4.33;3.13;;;;;;;17.57;nan;96320.44;3531237;40;21167;-73
2021/06/17 04:11:01;;;;;;;9.90;4.20;;;;;;;17.56;nan;96332.84;3529641;40;20948;-73
2021/06/17 04:13:33;;;;;;;4.47;3.60;;;;;;;17.38;nan;96332.03;3530335;40;20546;-73
2021/06/17 04:16:03;;;;;;;8.67;4.00;;;;;;;17.18;nan;96329.59;3529357;40;20990;-73
2021/06/17 04:18:32;;;;;;;11.13;3.87;;;;;;;17.56;nan;96334.66;3530855;40;20449;-72
2021/06/17 04:21:02;;;;;;;5.10;3.20;;;;;;;17.89;nan;96327.75;3531072;40;20469;-73
2021/06/17 04:23:32;;;;;;;6.03;3.70;;;;;;;18.11;nan;96329.06;3532421;40;21184;-75
2021/06/17 04:26:02;;;;;;;5.03;3.67;;;;;;;17.99;nan;96335.59;3518221;40;20779;-73
2021/06/17 04:28:32;;;;;;;6.23;3.60;;;;;;;17.81;nan;96335.63;3528390;40;20830;-73
2021/06/17 04:31:02;;;;;;;6.00;3.80;;;;;;;17.59;nan;96339.66;3528699;40;20465;-74
2021/06/17 04:33:31;;;;;;;4.30;3.30;;;;;;;17.57;nan;96345.09;3527993;40;20434;-73
2021/06/17 04:36:02;;;;;;;6.07;4.00;;;;;;;17.68;nan;96343.16;3520039;40;20948;-74
2021/06/17 04:38:30;;;;;;;8.93;3.83;;;;;;;17.67;nan;96344.16;3530231;40;20932;-73
2021/06/17 04:40:58;;;;;;;12.43;3.83;;;;;;;17.62;nan;96346.44;3522249;40;20810;-73
2021/06/17 04:43:27;;;;;;;5.80;3.10;;;;;;;17.88;nan;96341.19;3529114;40;20485;-73
2021/06/17 04:45:58;;;;;;;7.80;3.50;;;;;;;17.88;nan;96347.31;3529085;40;20698;-73
2021/06/17 04:48:33;;;;;;;5.83;2.80;;;;;;;17.64;nan;96345.31;3532032;40;20854;-73
2021/06/17 04:51:03;;;;;;;5.13;3.40;;;;;;;17.73;nan;96340.91;3533483;40;20951;-74
2021/06/17 04:53:31;;;;;;;7.20;3.90;;;;;;;17.92;nan;96332.75;3531222;40;20470;-73
2021/06/17 04:55:59;;;;;;;6.43;4.03;;;;;;;18.31;nan;96334.91;3530090;40;20567;-72
2021/06/17 04:58:27;;;;;;;6.00;4.00;;;;;;;18.42;nan;96332.97;3530685;40;20480;-73
2021/06/17 05:00:55;;;;;;;5.30;3.23;;;;;;;18.59;nan;96337.31;3529206;40;20877;-74
2021/06/17 05:03:23;;;;;;;4.67;4.17;;;;;;;18.64;nan;96332.38;3529470;40;20720;-72
2021/06/17 05:05:54;;;;;;;4.27;3.50;;;;;;;18.66;nan;96343.66;3529396;40;20469;-73
2021/06/17 05:11:19;;;;;;;7.13;3.90;;;;;;;19.22;nan;96337.78;3507914;40;20871;-73
2021/06/17 05:13:47;;;;;;;9.40;3.87;;;;;;;19.52;nan;96331.81;3521279;40;20524;-73
2021/06/17 05:16:15;;;;;;;6.60;3.33;;;;;;;19.80;nan;96331.44;3528884;40;20904;-74
2021/06/17 05:18:43;;;;;;;8.57;3.47;;;;;;;20.06;nan;96327.72;3531624;40;20453;-73
2021/06/17 05:21:12;;;;;;;7.27;3.23;;;;;;;20.52;nan;96327.84;3527467;40;20848;-74
2021/06/17 05:23:41;;;;;;;9.33;3.37;;;;;;;20.84;nan;96328.72;3531034;40;20442;-73
2021/06/17 05:26:09;;;;;;;14.30;8.70;;;;;;;20.69;nan;96334.75;3531467;40;20570;-73
2021/06/17 05:28:37;;;;;;;12.73;7.40;;;;;;;20.73;nan;96324.59;3529797;40;20458;-73
2021/06/17 05:31:07;;;;;;;9.13;4.00;;;;;;;20.51;nan;96332.34;3528689;40;20874;-73
2021/06/17 05:33:35;;;;;;;5.77;3.47;;;;;;;20.66;nan;96342.25;3529364;40;20465;-73
2021/06/17 05:36:04;;;;;;;5.23;3.30;;;;;;;20.72;nan;96339.75;3520919;40;20517;-73
2021/06/17 05:38:34;;;;;;;7.57;3.50;;;;;;;20.92;nan;96344.63;3529049;40;20468;-73
2021/06/17 05:41:02;;;;;;;13.00;4.00;;;;;;;20.82;nan;96344.84;3528589;40;20828;-74
2021/06/17 05:43:30;;;;;;;5.67;4.00;;;;;;;21.37;nan;96350.13;3528001;40;20755;-73
2021/06/17 05:45:59;;;;;;;10.10;3.53;;;;;;;21.33;nan;96347.00;3528015;40;20571;-74
2021/06/17 05:48:29;;;;;;;15.53;3.87;;;;;;;21.66;nan;96346.72;3530202;40;20450;-74
2021/06/17 05:50:56;;;;;;;16.93;3.50;;;;;;;21.99;nan;96349.06;3529755;40;20529;-73
2021/06/17 05:53:25;;;;;;;7.43;3.60;;;;;;;22.38;nan;96343.47;3529974;40;20519;-74
2021/06/17 05:55:54;;;;;;;4.83;2.80;;;;;;;22.68;nan;96335.44;3528161;40;20699;-73
2021/06/17 05:58:22;;;;;;;8.53;2.60;;;;;;;23.19;nan;96342.53;3530296;40;20881;-73
2021/06/17 06:00:50;;;;;;;9.10;3.53;;;;;;;23.53;nan;96344.50;3529563;40;20564;-73
2021/06/17 06:03:18;;;;;;;9.43;2.97;;;;;;;23.69;nan;96341.53;3523981;40;20461;-74
2021/06/17 06:05:46;;;;;;;4.77;2.10;;;;;;;23.90;nan;96339.06;3530617;40;20717;-73
2021/06/17 06:08:14;;;;;;;8.50;2.70;;;;;;;23.72;nan;96337.66;3530585;40;20873;-73
2021/06/17 06:10:44;;;;;;;5.03;2.83;;;;;;;23.87;nan;96341.09;3530903;40;20468;-73
2021/06/17 06:13:14;;;;;;;8.13;2.80;;;;;;;23.93;nan;96334.13;3531271;40;20532;-73
2021/06/17 06:15:42;;;;;;;6.27;2.20;;;;;;;23.91;nan;96348.72;3529947;40;20571;-73
2021/06/17 06:18:12;;;;;;;7.70;2.10;;;;;;;23.66;nan;96343.81;3528823;40;20472;-74
2021/06/17 06:20:41;;;;;;;7.83;2.27;;;;;;;23.82;nan;96351.53;3528664;40;20911;-73
2021/06/17 06:23:10;;;;;;;6.37;2.83;;;;;;;24.15;nan;96347.41;3528663;40;20481;-73
2021/06/17 06:25:44;;;;;;;5.20;2.50;;;;;;;24.52;nan;96364.13;3531276;40;20468;-74
2021/06/17 06:28:13;;;;;;;11.40;2.70;;;;;;;24.65;nan;96365.00;3521682;40;20457;-73
2021/06/17 06:30:41;;;;;;;6.90;2.33;;;;;;;24.65;nan;96361.50;3527453;40;20473;-72
2021/06/17 06:33:08;;;;;;;3.93;2.20;;;;;;;24.85;nan;96350.84;3529042;40;20595;-73
2021/06/17 06:35:36;;;;;;;9.13;6.37;;;;;;;24.59;nan;96365.81;3531487;40;20477;-73
2021/06/17 06:38:06;;;;;;;3.23;2.33;;;;;;;24.75;nan;96367.31;3530310;40;20473;-73
2021/06/17 06:40:36;;;;;;;7.37;2.47;;;;;;;24.84;nan;96367.97;3528580;40;20485;-74
2021/06/17 06:43:05;;;;;;;8.57;2.57;;;;;;;24.79;nan;96370.41;3527962;40;20908;-73
2021/06/17 06:45:35;;;;;;;4.23;2.67;;;;;;;24.97;nan;96369.84;3526974;40;21095;-73
2021/06/17 06:48:03;;;;;;;5.23;2.90;;;;;;;25.21;nan;96368.47;3529524;40;20536;-73
2021/06/17 06:50:31;;;;;;;12.03;2.60;;;;;;;25.43;nan;96380.69;3531623;40;20841;-73
2021/06/17 06:52:59;;;;;;;7.30;2.77;;;;;;;25.48;nan;96373.88;3528133;40;20461;-73
2021/06/17 06:55:27;;;;;;;6.50;3.40;;;;;;;25.71;nan;96381.53;3528421;40;20457;-73
2021/06/17 06:57:58;;;;;;;8.63;4.63;;;;;;;25.75;nan;96380.91;3530339;40;20599;-73
2021/06/17 07:00:26;;;;;;;8.83;2.60;;;;;;;25.88;nan;96385.47;3528861;40;20774;-73
2021/06/17 07:02:55;;;;;;;5.83;2.50;;;;;;;25.85;nan;96383.19;3531624;40;20536;-73
2021/06/17 07:05:23;;;;;;;4.90;2.53;;;;;;;25.98;nan;96385.06;3530327;40;20523;-73
2021/06/17 07:07:51;;;;;;;10.07;2.40;;;;;;;26.14;nan;96389.19;3529201;40;20823;-73
2021/06/17 07:10:19;;;;;;;5.53;2.53;;;;;;;26.35;nan;96382.75;3528752;40;20821;-74
2021/06/17 07:12:46;;;;;;;5.10;2.00;;;;;;;26.50;nan;96380.66;3521236;40;20469;-73
2021/06/17 07:15:15;;;;;;;9.23;3.80;;;;;;;26.54;nan;96376.50;3517514;40;20830;-73
2021/06/17 07:17:42;;;;;;;9.17;3.33;;;;;;;26.87;nan;96383.59;3529162;40;20542;-71
2021/06/17 07:20:12;;;;;;;10.03;2.30;;;;;;;26.85;nan;96379.50;3529989;40;20471;-73
2021/06/17 07:22:40;;;;;;;5.80;2.40;;;;;;;26.78;nan;96374.16;3531511;40;20453;-73
2021/06/17 07:25:09;;;;;;;2.60;1.83;;;;;;;27.52;nan;96377.28;3522174;40;20841;-73
2021/06/17 07:27:37;;;;;;;6.30;2.70;;;;;;;27.25;nan;96377.47;3530147;40;20453;-73
2021/06/17 07:30:09;;;;;;;6.33;2.43;;;;;;;27.61;nan;96382.16;3534792;40;20647;-73
2021/06/17 07:32:37;;;;;;;4.00;2.30;;;;;;;27.77;nan;96370.03;3529231;40;20441;-74
2021/06/17 07:35:06;;;;;;;4.10;2.40;;;;;;;27.86;nan;96369.78;3527480;40;20717;-73
2021/06/17 07:37:35;;;;;;;3.10;2.03;;;;;;;27.95;nan;96368.47;3529223;40;20946;-73
2021/06/17 07:40:04;;;;;;;3.60;2.53;;;;;;;28.19;nan;96367.63;3529749;40;20480;-73
2021/06/17 07:42:32;;;;;;;8.57;2.50;;;;;;;27.90;nan;96365.63;3533341;40;20546;-74
2021/06/17 07:45:00;;;;;;;8.20;1.93;;;;;;;28.25;nan;96362.41;3528736;40;20732;-74
2021/06/17 07:47:28;;;;;;;3.80;2.10;;;;;;;28.33;nan;96359.41;3514322;40;20675;-73
2021/06/17 07:49:56;;;;;;;6.73;1.97;;;;;;;28.66;nan;96360.91;3528550;40;21008;-73
2021/06/17 07:52:24;;;;;;;5.97;2.33;;;;;;;29.09;nan;96354.56;3532029;40;21236;-73
2021/06/17 07:54:53;;;;;;;10.30;2.00;;;;;;;28.33;nan;96360.25;3531473;40;20481;-73
2021/06/17 07:57:21;;;;;;;4.20;2.60;;;;;;;28.46;nan;96361.97;3530607;40;20873;-73
2021/06/17 07:59:49;;;;;;;2.93;1.60;;;;;;;28.71;nan;96361.06;3530341;40;20477;-73
2021/06/17 08:02:17;;;;;;;10.30;2.20;;;;;;;29.01;nan;96354.88;3533537;40;20600;-73
2021/06/17 08:04:45;;;;;;;19.30;2.03;;;;;;;28.83;nan;96359.25;3531058;40;20842;-73
2021/06/17 08:07:13;;;;;;;3.63;2.13;;;;;;;29.27;nan;96365.34;3534137;40;20453;-73
2021/06/17 08:09:41;;;;;;;14.07;2.17;;;;;;;29.50;nan;96369.16;3529279;40;20711;-73
2021/06/17 08:12:11;;;;;;;5.17;2.17;;;;;;;29.33;nan;96369.00;3530383;40;20885;-73
2021/06/17 08:14:39;;;;;;;4.83;2.33;;;;;;;30.20;nan;96373.00;3521889;40;20543;-74
2021/06/17 08:17:07;;;;;;;6.63;2.27;;;;;;;29.83;nan;96382.13;3529737;40;20457;-74
2021/06/17 08:19:35;;;;;;;7.53;2.00;;;;;;;29.07;nan;96386.31;3530580;40;20481;-73
2021/06/17 08:22:05;;;;;;;6.87;2.20;;;;;;;29.34;nan;96371.47;3528404;40;20498;-73
2021/06/17 08:24:36;;;;;;;8.60;2.20;;;;;;;30.27;nan;96368.31;3529463;40;20777;-74
2021/06/17 08:27:05;;;;;;;6.03;2.90;;;;;;;29.93;nan;96370.75;3530448;40;20925;-73
2021/06/17 08:29:34;;;;;;;10.10;2.50;;;;;;;29.85;nan;96371.13;3531717;40;20476;-73
2021/06/17 08:32:03;;;;;;;4.17;2.30;;;;;;;30.13;nan;96356.94;3532164;40;20453;-73
2021/06/17 08:34:31;;;;;;;5.90;2.50;;;;;;;30.11;nan;96369.84;3529777;40;20782;-74
2021/06/17 08:36:59;;;;;;;7.50;2.20;;;;;;;30.58;nan;96374.38;3528593;40;20454;-74
2021/06/17 08:39:28;;;;;;;7.67;2.47;;;;;;;30.50;nan;96373.72;3531433;40;20703;-74
2021/06/17 08:42:00;;;;;;;4.70;2.23;;;;;;;30.49;nan;96380.16;3533951;40;20575;-73
2021/06/17 08:44:29;;;;;;;3.90;2.00;;;;;;;30.78;nan;96379.41;3533029;40;20464;-73
2021/06/17 08:47:00;;;;;;;3.67;2.20;;;;;;;31.42;nan;96384.72;3518817;40;20934;-73
2021/06/17 08:49:28;;;;;;;4.53;2.20;;;;;;;31.62;nan;96398.63;3530210;40;20675;-74
2021/06/17 08:51:58;;;;;;;6.10;2.80;;;;;;;30.88;nan;96404.75;3524095;40;20465;-74
2021/06/17 08:54:29;;;;;;;3.30;2.77;;;;;;;30.59;nan;96403.06;3533918;40;20855;-74
2021/06/17 08:56:57;;;;;;;4.30;2.27;;;;;;;30.87;nan;96403.13;3533429;40;20934;-74
2021/06/17 08:59:33;;;;;;;7.10;2.20;;;;;;;32.06;nan;96404.25;3522034;40;20461;-74
2021/06/17 09:02:04;;;;;;;6.33;2.30;;;;;;;32.30;nan;96391.38;3532801;40;20460;-73
2021/06/17 09:04:32;;;;;;;6.90;1.97;;;;;;;32.33;nan;96406.28;3530907;40;20548;-73
2021/06/17 09:07:06;;;;;;;5.30;3.40;;;;;;;31.71;nan;96396.34;3531688;40;20933;-74
2021/06/17 09:09:37;;;;;;;20.03;11.40;;;;;;;31.93;nan;96399.13;3533982;40;20883;-73
2021/06/17 09:12:05;;;;;;;8.30;2.77;;;;;;;;;;3531866;40;20544;-73
2021/06/17 09:14:33;;;;;;;3.30;1.97;;;;;;;32.18;nan;96406.06;3534435;40;20523;-74
2021/06/17 09:17:07;;;;;;;6.83;2.50;;;;;;;31.80;nan;96408.41;3531517;40;20850;-74
2021/06/17 09:19:39;;;;;;;4.93;2.03;;;;;;;;;;3533501;40;21187;-73
2021/06/17 09:22:08;;;;;;;12.80;2.60;;;;;;;32.01;nan;96408.75;3530823;40;20811;-74
2021/06/17 09:24:38;;;;;;;8.83;2.20;;;;;;;31.34;nan;96416.50;3531859;40;20841;-73
2021/06/17 09:27:28;;;;;;;5.20;2.87;;;;;;;32.26;nan;96417.28;3525201;40;20467;-74
2021/06/17 09:30:15;;;;;;;10.70;2.50;;;;;;;32.06;nan;96416.97;3523747;40;20477;-74
2021/06/17 09:32:50;;;;;;;3.00;2.30;;;;;;;32.76;nan;96421.00;3532048;40;20576;-74
2021/06/17 09:35:20;;;;;;;6.80;2.43;;;;;;;32.90;nan;96418.75;3529895;40;20520;-73
2021/06/17 09:37:49;;;;;;;5.30;2.60;;;;;;;33.39;nan;96417.97;3532389;40;20498;-74
2021/06/17 09:40:28;;;;;;;10.17;3.00;;;;;;;33.11;nan;96417.13;3533922;40;21159;-74
2021/06/17 09:43:15;;;;;;;2.60;2.23;;;;;;;32.10;nan;96413.53;3532868;40;20818;-74
2021/06/17 09:45:52;;;;;;;3.70;2.60;;;;;;;32.24;nan;96429.44;3530253;40;20461;-73
2021/06/17 09:48:41;;;;;;;4.50;3.03;;;;;;;32.58;nan;96424.00;3534520;40;20920;-73
2021/06/17 09:51:26;;;;;;;6.40;2.70;;;;;;;33.12;nan;96424.19;3533227;40;20469;-73
2021/06/17 09:54:07;;;;;;;10.83;2.60;;;;;;;33.75;nan;96427.31;3536323;40;20547;-74
2021/06/17 09:56:38;;;;;;;6.43;3.43;;;;;;;33.93;nan;96433.44;3520179;40;20822;-73
2021/06/17 09:59:07;;;;;;;3.23;2.90;;;;;;;33.40;nan;96434.00;3532388;40;20582;-73
2021/06/17 10:01:41;;;;;;;3.33;2.50;;;;;;;33.43;nan;96435.38;3533787;40;20442;-73
2021/06/17 10:04:12;;;;;;;6.67;3.10;;;;;;;33.04;nan;96422.69;3533755;40;20601;-73
2021/06/17 10:06:41;;;;;;;8.77;3.20;;;;;;;33.18;nan;96428.59;3534827;40;20877;-74
2021/06/17 10:09:12;;;;;;;11.73;3.07;;;;;;;34.14;nan;96412.69;3526759;40;20460;-74
2021/06/17 10:11:42;;;;;;;5.93;2.77;;;;;;;34.79;nan;96406.06;3534020;40;20540;-73
2021/06/17 10:14:12;;;;;;;6.40;2.80;;;;;;;35.38;nan;96404.13;3530519;40;20672;-73
2021/06/17 10:16:42;;;;;;;3.87;3.00;;;;;;;33.80;nan;96393.97;3532575;40;20532;-73
2021/06/17 10:19:12;;;;;;;3.70;3.20;;;;;;;34.19;nan;96404.63;3534326;40;20521;-73
2021/06/17 10:21:40;;;;;;;3.70;2.30;;;;;;;;;;3531461;40;20568;-73
2021/06/17 10:24:14;;;;;;;5.60;2.20;;;;;;;34.54;nan;96411.34;3523963;40;20469;-73
2021/06/17 10:26:44;;;;;;;3.30;2.80;;;;;;;35.16;nan;96412.47;3531856;40;20528;-73
2021/06/17 10:29:36;;;;;;;2.70;2.50;;;;;;;34.79;nan;96408.78;3523209;40;20603;-73
2021/06/17 10:32:06;;;;;;;6.37;2.73;;;;;;;35.59;nan;96411.25;3532608;40;20854;-73
2021/06/17 10:34:57;;;;;;;4.90;2.33;;;;;;;35.08;nan;96404.84;3529507;40;20810;-73
2021/06/17 10:37:31;;;;;;;3.50;2.70;;;;;;;35.80;nan;96400.41;3531734;40;20905;-73
2021/06/17 10:40:04;;;;;;;4.37;2.47;;;;;;;36.68;nan;96431.19;3529990;40;20944;-73
2021/06/17 10:42:35;;;;;;;5.23;2.87;;;;;;;37.27;nan;96407.78;3532181;40;20838;-73
2021/06/17 10:45:10;;;;;;;5.63;2.70;;;;;;;37.23;nan;96407.53;3533516;40;20853;-73
2021/06/17 10:48:07;;;;;;;4.00;2.83;;;;;;;37.14;nan;96415.47;3530535;40;20876;-71
2021/06/17 10:50:58;;;;;;;17.60;3.10;;;;;;;36.14;nan;96410.75;3529544;40;20482;-73
2021/06/17 10:53:32;;;;;;;9.27;2.90;;;;;;;35.83;nan;96400.69;3525362;40;20526;-73
2021/06/17 10:56:06;;;;;;;3.00;2.80;;;;;;;35.39;nan;96400.34;3530132;40;20477;-73
2021/06/17 10:59:01;;;;;;;4.67;2.60;;;;;;;33.90;nan;96396.75;3529457;40;20901;-72
2021/06/17 11:01:32;;;;;;;2.47;2.27;;;;;;;34.10;nan;96398.00;3505648;40;20804;-73
2021/06/17 11:04:06;;;;;;;12.23;3.43;;;;;;;33.73;nan;96402.31;3526503;40;20465;-73
2021/06/17 11:07:18;;;;;;;7.43;3.13;;;;;;;33.52;nan;96395.03;3536039;40;20897;-73
2021/06/17 11:10:02;;;;;;;11.40;3.57;;;;;;;36.02;nan;96394.69;3525872;40;20853;-73
2021/06/17 11:12:57;;;;;;;5.70;3.00;;;;;;;34.89;nan;96399.03;3522416;40;20800;-73
2021/06/17 11:15:45;;;;;;;5.13;3.03;;;;;;;;;;3531458;40;20475;-73
2021/06/17 11:19:00;;;;;;;5.23;3.00;;;;;;;34.19;nan;96389.13;3533147;40;20498;-73
2021/06/17 11:21:42;;;;;;;11.53;4.00;;;;;;;32.84;nan;96412.44;3529283;40;20469;-73
2021/06/17 11:24:38;;;;;;;9.00;3.93;;;;;;;35.67;nan;96384.59;3530503;40;20463;-72
2021/06/17 11:27:30;;;;;;;6.73;5.30;;;;;;;37.00;nan;96389.88;3498029;40;20613;-74
2021/06/17 11:29:58;;;;;;;12.20;3.20;;;;;;;34.64;nan;96384.25;3531311;40;20559;-73
2021/06/17 11:32:33;;;;;;;3.70;3.37;;;;;;;36.66;nan;96385.09;3523882;40;20563;-73
2021/06/17 11:35:01;;;;;;;6.40;3.20;;;;;;;37.43;nan;96382.00;3535221;40;20849;-74
2021/06/17 11:37:34;;;;;;;12.00;2.93;;;;;;;37.96;nan;96390.38;3524142;40;20477;-74
2021/06/17 11:40:05;;;;;;;4.23;2.90;;;;;;;37.35;nan;96380.69;3532935;40;20600;-74
2021/06/17 11:42:35;;;;;;;12.93;4.07;;;;;;;36.25;nan;96368.00;3536334;40;20876;-73
2021/06/17 11:45:10;;;;;;;6.63;3.27;;;;;;;35.18;nan;96351.28;3523815;40;20488;-74
2021/06/17 11:47:45;;;;;;;4.03;3.30;;;;;;;35.49;nan;96356.78;3532732;40;20453;-73
2021/06/17 11:50:14;;;;;;;6.20;3.30;;;;;;;35.00;nan;96354.50;3532105;40;20500;-74
2021/06/17 11:52:45;;;;;;;6.20;3.57;;;;;;;35.51;nan;96349.16;3529578;40;20450;-73
2021/06/17 11:55:14;;;;;;;7.63;2.87;;;;;;;34.16;nan;96356.25;3534118;40;20543;-73
2021/06/17 11:57:43;;;;;;;4.80;3.40;;;;;;;32.50;nan;96358.31;3529901;40;20652;-73
2021/06/17 12:00:12;;;;;;;10.13;4.00;;;;;;;;;;3530007;40;20985;-73
2021/06/17 12:02:49;;;;;;;8.90;2.80;;;;;;;34.24;nan;96375.56;3530304;40;20723;-74
2021/06/17 12:05:20;;;;;;;6.53;3.30;;;;;;;;;;3519580;40;20774;-73
2021/06/17 12:07:48;;;;;;;12.13;2.87;;;;;;;35.00;nan;96354.50;3531781;40;20526;-73
2021/06/17 12:10:20;;;;;;;26.93;4.60;;;;;;;36.09;nan;96353.53;3533208;40;20446;-73
2021/06/17 12:12:51;;;;;;;15.17;3.73;;;;;;;33.14;nan;96351.50;3529941;40;21169;-73
2021/06/17 12:15:21;;;;;;;12.03;4.10;;;;;;;33.92;nan;96361.22;3530303;40;20481;-73